createdAt,value
2022-10-05T00:00:00.911Z,94.90
2022-10-05T00:01:24.243Z,94.90
2022-10-05T00:02:38.036Z,94.90
2022-10-05T00:04:01.199Z,94.80
2022-10-05T00:05:31.068Z,95.00
2022-10-05T00:06:36.259Z,94.80
2022-10-05T00:07:39.776Z,95.00
2022-10-05T00:08:42.747Z,94.70
2022-10-05T00:09:49.792Z,94.80
2022-10-05T00:10:52.817Z,94.50
2022-10-05T00:12:00.487Z,94.30
2022-10-05T00:13:07.138Z,94.70
2022-10-05T00:14:19.750Z,94.50
2022-10-05T00:15:24.268Z,94.30
2022-10-05T00:16:28.120Z,94.30
2022-10-05T00:17:31.085Z,94.30
2022-10-05T00:18:36.577Z,94.30
2022-10-05T00:19:39.890Z,94.10
2022-10-05T00:20:44.867Z,94.10
2022-10-05T00:21:47.314Z,94.10
2022-10-05T00:22:56.773Z,94.30
2022-10-05T00:24:00.987Z,94.30
2022-10-05T00:25:16.116Z,94.30
2022-10-05T00:26:24.593Z,94.30
2022-10-05T00:27:36.709Z,94.10
2022-10-05T00:28:40.412Z,94.00
2022-10-05T00:29:44.070Z,94.00
2022-10-05T00:30:46.475Z,94.50
2022-10-05T00:31:52.490Z,94.00
2022-10-05T00:32:59.333Z,94.70
2022-10-05T00:34:06.213Z,94.30
2022-10-05T00:35:12.939Z,93.90
2022-10-05T00:36:16.470Z,94.10
2022-10-05T00:37:22.313Z,93.90
2022-10-05T00:38:25.746Z,93.90
2022-10-05T00:39:29.986Z,93.90
2022-10-05T00:40:43.125Z,93.90
2022-10-05T00:42:19.718Z,94.30
2022-10-05T00:44:08.771Z,93.80
2022-10-05T00:45:20.129Z,93.70
2022-10-05T00:46:29.769Z,93.60
2022-10-05T00:47:51.712Z,93.70
2022-10-05T00:49:09.710Z,93.60
2022-10-05T00:51:03.184Z,93.60
2022-10-05T00:52:20.358Z,93.40
2022-10-05T00:53:42.674Z,93.60
2022-10-05T00:54:52.937Z,93.50
2022-10-05T00:56:06.622Z,93.50
2022-10-05T00:57:29.627Z,93.50
2022-10-05T00:58:53.955Z,93.60
2022-10-05T01:00:07.825Z,93.60
2022-10-05T01:01:15.096Z,93.70
2022-10-05T01:02:50.438Z,94.00
2022-10-05T01:04:13.264Z,93.80
2022-10-05T01:05:30.748Z,93.80
2022-10-05T01:06:44.859Z,93.90
2022-10-05T01:07:57.381Z,93.70
2022-10-05T01:09:14.071Z,93.70
2022-10-05T01:10:28.613Z,93.70
2022-10-05T01:11:43.198Z,94.30
2022-10-05T01:12:59.167Z,94.00
2022-10-05T01:14:13.085Z,93.70
2022-10-05T01:15:26.358Z,93.70
2022-10-05T01:16:35.935Z,93.80
2022-10-05T01:17:49.570Z,93.70
2022-10-05T01:19:07.062Z,93.60
2022-10-05T01:20:33.739Z,93.70
2022-10-05T01:21:41.807Z,93.30
2022-10-05T01:23:08.953Z,93.50
2022-10-05T01:24:43.994Z,93.30
2022-10-05T01:26:01.551Z,93.10
2022-10-05T01:27:42.656Z,93.10
2022-10-05T01:28:52.542Z,93.00
2022-10-05T01:30:04.448Z,92.90
2022-10-05T01:31:16.254Z,93.00
2022-10-05T01:32:31.013Z,93.10
2022-10-05T01:33:43.003Z,93.10
2022-10-05T01:34:56.427Z,93.00
2022-10-05T01:36:07.524Z,93.00
2022-10-05T01:37:24.555Z,92.90
2022-10-05T01:38:44.647Z,92.90
2022-10-05T01:39:57.244Z,92.80
2022-10-05T01:41:25.001Z,92.80
2022-10-05T01:42:39.816Z,93.00
2022-10-05T01:43:49.932Z,93.20
2022-10-05T01:45:03.667Z,93.10
2022-10-05T01:46:26.708Z,93.10
2022-10-05T01:47:42.436Z,93.20
2022-10-05T01:48:59.828Z,93.30
2022-10-05T01:50:09.566Z,93.30
2022-10-05T01:51:22.397Z,93.40
2022-10-05T01:52:37.634Z,93.60
2022-10-05T01:53:58.320Z,94.30
2022-10-05T01:55:18.952Z,93.90
2022-10-05T01:56:44.487Z,94.10
2022-10-05T01:58:17.011Z,94.50
2022-10-05T01:59:42.181Z,94.20
2022-10-05T02:00:58.270Z,94.30
2022-10-05T02:02:05.186Z,94.50
2022-10-05T02:03:19.250Z,94.40
2022-10-05T02:05:00.224Z,94.70
2022-10-05T02:06:01.621Z,94.60
2022-10-05T02:07:14.394Z,94.80
2022-10-05T02:08:25.126Z,94.60
2022-10-05T02:09:34.446Z,94.60
2022-10-05T02:10:41.826Z,94.80
2022-10-05T02:11:54.273Z,94.80
2022-10-05T02:13:06.682Z,95.10
2022-10-05T02:14:13.643Z,95.20
2022-10-05T02:15:25.826Z,95.30
2022-10-05T02:16:38.596Z,95.30
2022-10-05T02:17:47.226Z,95.60
2022-10-05T02:18:56.013Z,95.40
2022-10-05T02:20:04.277Z,95.50
2022-10-05T02:21:09.166Z,95.40
2022-10-05T02:22:17.973Z,95.60
2022-10-05T02:23:34.841Z,95.50
2022-10-05T02:24:45.820Z,95.50
2022-10-05T02:25:53.659Z,95.50
2022-10-05T02:26:59.235Z,95.90
2022-10-05T02:28:09.648Z,95.70
2022-10-05T02:29:15.604Z,96.30
2022-10-05T02:30:21.719Z,95.90
2022-10-05T02:31:33.312Z,96.10
2022-10-05T02:32:41.497Z,95.80
2022-10-05T02:33:45.890Z,95.80
2022-10-05T02:34:51.831Z,96.00
2022-10-05T02:36:03.407Z,95.80
2022-10-05T02:37:25.507Z,96.00
2022-10-05T02:38:40.025Z,96.00
2022-10-05T02:39:59.637Z,96.00
2022-10-05T02:41:10.110Z,96.30
2022-10-05T02:42:23.505Z,96.30
2022-10-05T02:43:40.699Z,96.30
2022-10-05T02:44:59.968Z,96.30
2022-10-05T02:46:14.779Z,96.30
2022-10-05T02:47:27.938Z,96.30
2022-10-05T02:48:45.717Z,96.30
2022-10-05T02:49:58.508Z,96.30
2022-10-05T02:51:16.430Z,96.30
2022-10-05T02:52:29.537Z,96.30
2022-10-05T02:53:45.735Z,96.30
2022-10-05T02:55:00.675Z,96.30
2022-10-05T02:56:15.046Z,96.30
2022-10-05T02:57:28.566Z,96.30
2022-10-05T02:58:45.710Z,96.30
2022-10-05T02:59:55.467Z,96.30
2022-10-05T03:01:09.234Z,96.30
2022-10-05T03:02:19.520Z,96.30
2022-10-05T03:03:30.919Z,96.30
2022-10-05T03:04:42.886Z,96.30
2022-10-05T03:05:54.287Z,96.30
2022-10-05T03:07:09.783Z,96.30
2022-10-05T03:08:23.162Z,96.30
2022-10-05T03:09:34.899Z,96.30
2022-10-05T03:10:46.893Z,96.30
2022-10-05T03:12:03.807Z,96.30
2022-10-05T03:13:18.017Z,96.30
2022-10-05T03:14:28.203Z,96.30
2022-10-05T03:15:58.788Z,96.30
2022-10-05T03:17:12.073Z,96.30
2022-10-05T03:18:31.425Z,96.30
2022-10-05T03:20:08.512Z,96.30
2022-10-05T03:21:29.464Z,96.30
2022-10-05T03:22:49.152Z,96.30
2022-10-05T03:24:12.718Z,96.30
2022-10-05T03:26:04.039Z,96.30
2022-10-05T03:27:26.739Z,96.30
2022-10-05T03:28:41.612Z,96.30
2022-10-05T03:29:54.835Z,96.30
2022-10-05T03:31:04.575Z,96.30
2022-10-05T03:32:21.623Z,96.30
2022-10-05T03:33:38.297Z,96.30
2022-10-05T03:34:48.672Z,96.30
2022-10-05T03:36:05.865Z,96.30
2022-10-05T03:37:18.649Z,96.30
2022-10-05T03:38:32.021Z,96.30
2022-10-05T03:39:46.180Z,96.30
2022-10-05T03:40:58.860Z,96.30
2022-10-05T03:42:18.359Z,96.30
2022-10-05T03:43:51.063Z,96.30
2022-10-05T03:45:02.544Z,96.30
2022-10-05T03:46:12.591Z,96.30
2022-10-05T03:47:31.483Z,96.30
2022-10-05T03:48:47.955Z,96.30
2022-10-05T03:50:26.759Z,96.30
2022-10-05T03:51:32.781Z,96.30
2022-10-05T03:52:46.551Z,96.30
2022-10-05T03:53:57.346Z,96.30
2022-10-05T03:55:08.028Z,96.30
2022-10-05T03:56:16.875Z,96.30
2022-10-05T03:57:24.418Z,96.30
2022-10-05T03:58:35.952Z,95.80
2022-10-05T03:59:45.630Z,96.30
2022-10-05T04:00:54.147Z,96.10
2022-10-05T04:02:02.942Z,95.80
2022-10-05T04:03:12.672Z,96.00
2022-10-05T04:04:27.920Z,95.80
2022-10-05T04:05:35.943Z,95.80
2022-10-05T04:06:48.935Z,96.30
2022-10-05T04:07:59.872Z,95.80
2022-10-05T04:09:10.448Z,95.40
2022-10-05T04:10:22.984Z,95.40
2022-10-05T04:11:35.079Z,95.30
2022-10-05T04:12:42.591Z,95.20
2022-10-05T04:13:53.827Z,95.10
2022-10-05T04:15:04.226Z,95.20
2022-10-05T04:16:14.042Z,94.90
2022-10-05T04:17:34.981Z,95.00
2022-10-05T04:18:46.317Z,95.20
2022-10-05T04:20:00.483Z,94.90
2022-10-05T04:21:12.867Z,94.90
2022-10-05T04:22:22.719Z,94.90
2022-10-05T04:23:39.534Z,94.80
2022-10-05T04:24:49.462Z,95.00
2022-10-05T04:26:01.769Z,94.60
2022-10-05T04:27:12.541Z,94.70
2022-10-05T04:28:29.619Z,94.60
2022-10-05T04:29:42.084Z,94.70
2022-10-05T04:30:49.409Z,94.40
2022-10-05T04:32:09.808Z,94.30
2022-10-05T04:33:13.725Z,94.20
2022-10-05T04:34:41.022Z,94.20
2022-10-05T04:36:03.944Z,94.10
2022-10-05T04:37:14.751Z,94.10
2022-10-05T04:39:07.038Z,94.10
2022-10-05T04:40:31.426Z,93.70
2022-10-05T04:42:05.604Z,93.70
2022-10-05T04:43:17.648Z,94.10
2022-10-05T04:44:42.429Z,93.90
2022-10-05T04:46:14.897Z,93.70
2022-10-05T04:48:04.774Z,93.80
2022-10-05T04:49:30.477Z,93.70
2022-10-05T04:50:58.023Z,93.40
2022-10-05T04:52:14.074Z,93.60
2022-10-05T04:53:30.579Z,93.70
2022-10-05T04:54:49.487Z,93.60
2022-10-05T04:56:13.117Z,94.00
2022-10-05T04:57:27.422Z,93.90
2022-10-05T04:59:04.465Z,93.80
2022-10-05T05:00:28.558Z,93.70
2022-10-05T05:01:55.636Z,93.60
2022-10-05T05:03:30.815Z,93.70
2022-10-05T05:05:00.905Z,93.90
2022-10-05T05:06:20.275Z,93.70
2022-10-05T05:07:43.257Z,93.70
2022-10-05T05:09:23.053Z,93.60
2022-10-05T05:11:01.682Z,93.70
2022-10-05T05:12:25.869Z,93.60
2022-10-05T05:14:04.013Z,93.40
2022-10-05T05:15:26.185Z,93.50
2022-10-05T05:16:37.027Z,93.90
2022-10-05T05:18:02.321Z,93.60
2022-10-05T05:19:40.654Z,93.50
2022-10-05T05:20:56.694Z,93.50
2022-10-05T05:22:08.481Z,93.50
2022-10-05T05:23:24.491Z,93.70
2022-10-05T05:24:42.013Z,93.90
2022-10-05T05:25:55.006Z,93.80
2022-10-05T05:27:16.636Z,93.80
2022-10-05T05:28:34.790Z,93.70
2022-10-05T05:29:57.224Z,93.60
2022-10-05T05:31:16.418Z,93.50
2022-10-05T05:32:36.817Z,93.40
2022-10-05T05:33:54.264Z,93.50
2022-10-05T05:35:16.059Z,93.60
2022-10-05T05:36:35.890Z,93.40
2022-10-05T05:37:52.749Z,93.30
2022-10-05T05:39:17.833Z,93.60
2022-10-05T05:40:28.398Z,93.40
2022-10-05T05:41:41.073Z,93.50
2022-10-05T05:42:58.339Z,93.40
2022-10-05T05:44:20.326Z,93.30
2022-10-05T05:45:41.129Z,93.10
2022-10-05T05:47:03.578Z,93.10
2022-10-05T05:48:19.531Z,93.10
2022-10-05T05:49:28.003Z,94.20
2022-10-05T05:50:50.188Z,93.40
2022-10-05T05:52:01.433Z,93.10
2022-10-05T05:53:18.266Z,93.40
2022-10-05T05:54:31.069Z,93.10
2022-10-05T05:55:42.663Z,93.10
2022-10-05T05:56:49.760Z,93.10
2022-10-05T05:57:59.716Z,93.00
2022-10-05T05:59:17.902Z,92.70
2022-10-05T06:00:25.643Z,93.00
2022-10-05T06:01:44.526Z,93.00
2022-10-05T06:03:01.124Z,93.00
2022-10-05T06:04:14.077Z,93.50
2022-10-05T06:05:30.350Z,93.20
2022-10-05T06:06:42.407Z,93.00
2022-10-05T06:07:45.068Z,93.40
2022-10-05T06:08:53.169Z,93.30
2022-10-05T06:10:20.527Z,93.40
2022-10-05T06:11:42.539Z,94.00
2022-10-05T06:12:50.216Z,93.60
2022-10-05T06:14:01.806Z,93.30
2022-10-05T06:15:32.546Z,93.40
2022-10-05T06:16:38.370Z,93.30
2022-10-05T06:17:48.801Z,93.40
2022-10-05T06:18:58.533Z,93.30
2022-10-05T06:20:10.013Z,93.10
2022-10-05T06:21:23.881Z,93.10
2022-10-05T06:22:36.188Z,93.10
2022-10-05T06:23:47.748Z,93.20
2022-10-05T06:25:03.441Z,93.50
2022-10-05T06:26:32.006Z,93.30
2022-10-05T06:27:38.739Z,93.30
2022-10-05T06:28:42.669Z,93.40
2022-10-05T06:30:08.903Z,93.30
2022-10-05T06:31:32.412Z,93.20
2022-10-05T06:33:11.393Z,93.50
2022-10-05T06:34:47.576Z,93.90
2022-10-05T06:36:09.309Z,93.50
2022-10-05T06:37:20.413Z,93.60
2022-10-05T06:38:51.596Z,93.60
2022-10-05T06:40:13.814Z,93.40
2022-10-05T06:41:25.832Z,93.80
2022-10-05T06:42:52.108Z,93.90
2022-10-05T06:43:59.083Z,93.60
2022-10-05T06:45:32.113Z,93.60
2022-10-05T06:47:06.990Z,93.80
2022-10-05T06:48:47.551Z,93.50
2022-10-05T06:50:20.199Z,93.50
2022-10-05T06:51:53.953Z,93.70
2022-10-05T06:53:28.609Z,93.30
2022-10-05T06:54:50.875Z,93.60
2022-10-05T06:56:07.057Z,94.40
2022-10-05T06:57:26.151Z,93.80
2022-10-05T06:58:49.580Z,93.90
2022-10-05T07:00:01.293Z,93.60
2022-10-05T07:01:15.398Z,93.80
2022-10-05T07:02:30.656Z,93.50
2022-10-05T07:03:46.976Z,93.70
2022-10-05T07:05:17.811Z,93.70
2022-10-05T07:06:26.984Z,93.80
2022-10-05T07:07:41.289Z,93.40
2022-10-05T07:09:22.999Z,93.50
2022-10-05T07:10:40.908Z,93.60
2022-10-05T07:12:04.521Z,94.10
2022-10-05T07:13:40.726Z,93.50
2022-10-05T07:15:20.190Z,93.60
2022-10-05T07:16:37.733Z,93.60
2022-10-05T07:17:54.669Z,93.60
2022-10-05T07:19:16.336Z,93.60
2022-10-05T07:20:27.852Z,93.70
2022-10-05T07:21:41.060Z,93.70
2022-10-05T07:23:05.877Z,93.60
2022-10-05T07:24:29.314Z,93.30
2022-10-05T07:25:45.607Z,93.30
2022-10-05T07:27:00.135Z,94.40
2022-10-05T07:28:09.834Z,94.90
2022-10-05T07:29:29.143Z,93.90
2022-10-05T07:30:41.409Z,93.80
2022-10-05T07:31:54.335Z,93.40
2022-10-05T07:33:09.389Z,93.60
2022-10-05T07:34:23.867Z,94.00
2022-10-05T07:35:57.730Z,94.10
2022-10-05T07:37:23.290Z,93.70
2022-10-05T07:38:33.484Z,93.90
2022-10-05T07:40:01.299Z,93.60
2022-10-05T07:41:14.707Z,94.00
2022-10-05T07:42:30.634Z,94.70
2022-10-05T07:44:01.458Z,94.70
2022-10-05T07:45:19.189Z,94.40
2022-10-05T07:46:34.002Z,94.70
2022-10-05T07:47:44.993Z,94.50
2022-10-05T07:49:03.232Z,94.20
2022-10-05T07:50:18.930Z,94.60
2022-10-05T07:51:34.353Z,94.30
2022-10-05T07:52:41.383Z,94.50
2022-10-05T07:53:57.835Z,94.30
2022-10-05T07:55:15.431Z,94.90
2022-10-05T07:56:32.642Z,95.20
2022-10-05T07:58:04.860Z,94.60
2022-10-05T07:59:23.368Z,94.90
2022-10-05T08:00:50.263Z,94.50
2022-10-05T08:02:01.826Z,94.40
2022-10-05T08:03:15.261Z,94.30
2022-10-05T08:04:25.284Z,95.20
2022-10-05T08:05:31.589Z,94.80
2022-10-05T08:08:00.533Z,94.30
2022-10-05T08:09:13.393Z,94.10
2022-10-05T08:10:31.799Z,94.50
2022-10-05T08:11:45.101Z,94.20
2022-10-05T08:13:07.397Z,94.40
2022-10-05T08:14:18.360Z,93.90
2022-10-05T08:15:26.841Z,94.40
2022-10-05T08:16:38.057Z,94.00
2022-10-05T08:17:53.826Z,95.00
2022-10-05T08:19:03.307Z,94.50
2022-10-05T08:20:27.239Z,93.80
2022-10-05T08:21:37.787Z,93.70
2022-10-05T08:22:47.148Z,94.30
2022-10-05T08:25:05.817Z,93.90
2022-10-05T08:26:22.730Z,93.90
2022-10-05T08:27:31.919Z,93.80
2022-10-05T08:28:47.153Z,93.80
2022-10-05T08:29:59.636Z,93.80
2022-10-05T08:31:12.524Z,93.40
2022-10-05T08:32:24.095Z,93.40
2022-10-05T08:33:32.763Z,93.60
2022-10-05T08:34:47.047Z,93.10
2022-10-05T08:36:01.540Z,93.20
2022-10-05T08:37:09.720Z,93.90
2022-10-05T08:38:17.023Z,93.00
2022-10-05T08:39:25.079Z,92.50
2022-10-05T08:41:32.249Z,93.10
2022-10-05T08:43:09.869Z,92.60
2022-10-05T08:46:27.756Z,92.80
2022-10-05T08:48:01.932Z,92.90
2022-10-05T08:49:40.108Z,92.50
2022-10-05T08:51:16.344Z,93.10
2022-10-05T08:52:31.308Z,92.50
2022-10-05T08:54:21.561Z,92.60
2022-10-05T08:55:45.596Z,92.30
2022-10-05T08:57:10.839Z,92.20
2022-10-05T08:58:45.067Z,92.00
2022-10-05T09:00:12.206Z,92.50
2022-10-05T09:01:27.306Z,92.00
2022-10-05T09:03:02.028Z,92.40
2022-10-05T09:04:42.045Z,92.50
2022-10-05T09:06:18.406Z,92.30
2022-10-05T09:07:53.750Z,92.20
2022-10-05T09:09:40.261Z,92.00
2022-10-05T09:11:05.765Z,91.90
2022-10-05T09:12:54.598Z,93.20
2022-10-05T09:14:29.651Z,93.10
2022-10-05T09:15:53.625Z,92.30
2022-10-05T09:17:18.662Z,92.10
2022-10-05T09:19:10.439Z,92.00
2022-10-05T09:20:32.241Z,92.00
2022-10-05T09:21:43.431Z,91.60
2022-10-05T09:23:15.603Z,91.80
2022-10-05T09:24:29.653Z,92.20
2022-10-05T09:25:47.841Z,92.10
2022-10-05T09:27:04.495Z,91.20
2022-10-05T09:28:26.512Z,91.50
2022-10-05T09:30:27.401Z,91.80
2022-10-05T09:31:58.290Z,91.50
2022-10-05T09:34:01.202Z,91.60
2022-10-05T09:35:26.972Z,90.90
2022-10-05T09:37:23.610Z,90.90
2022-10-05T09:38:39.586Z,90.70
2022-10-05T09:40:32.355Z,91.10
2022-10-05T09:42:14.490Z,90.50
2022-10-05T09:44:05.930Z,91.10
2022-10-05T09:46:02.510Z,90.90
2022-10-05T09:47:47.318Z,92.20
2022-10-05T09:50:04.638Z,91.10
2022-10-05T09:51:51.225Z,90.60
2022-10-05T09:53:40.603Z,90.00
2022-10-05T09:55:25.660Z,90.40
2022-10-05T09:57:04.180Z,90.80
2022-10-05T09:58:56.290Z,91.10
2022-10-05T10:00:30.883Z,90.50
2022-10-05T10:02:27.700Z,91.00
2022-10-05T10:04:29.774Z,90.10
2022-10-05T10:06:10.555Z,89.50
2022-10-05T10:07:57.547Z,89.30
2022-10-05T10:09:37.916Z,89.40
2022-10-05T10:11:21.582Z,91.30
2022-10-05T10:12:38.215Z,89.10
2022-10-05T10:14:10.342Z,90.70
2022-10-05T10:15:54.680Z,89.70
2022-10-05T10:17:37.900Z,89.30
2022-10-05T10:19:29.791Z,90.50
2022-10-05T10:20:57.331Z,90.00
2022-10-05T10:22:44.294Z,89.60
2022-10-05T10:24:30.450Z,90.40
2022-10-05T10:26:21.767Z,89.90
2022-10-05T10:27:49.144Z,89.60
2022-10-05T10:29:46.037Z,89.90
2022-10-05T10:31:32.547Z,89.50
2022-10-05T10:33:16.622Z,89.40
2022-10-05T10:34:45.643Z,91.00
2022-10-05T10:36:06.017Z,89.60
2022-10-05T10:37:46.150Z,91.30
2022-10-05T10:39:01.679Z,89.90
2022-10-05T10:40:29.600Z,90.30
2022-10-05T10:42:14.975Z,89.80
2022-10-05T10:43:51.288Z,89.80
2022-10-05T10:45:21.132Z,92.00
2022-10-05T10:46:44.787Z,91.10
2022-10-05T10:48:02.063Z,91.20
2022-10-05T10:49:25.603Z,92.50
2022-10-05T10:51:02.971Z,90.80
2022-10-05T10:52:38.539Z,91.20
2022-10-05T10:54:30.725Z,91.10
2022-10-05T10:55:48.652Z,90.90
2022-10-05T10:57:10.602Z,91.20
2022-10-05T10:59:09.000Z,90.80
2022-10-05T11:00:46.821Z,90.90
2022-10-05T11:02:15.717Z,91.70
2022-10-05T11:04:20.218Z,91.70
2022-10-05T11:05:50.805Z,91.90
2022-10-05T11:07:40.684Z,91.20
2022-10-05T11:09:33.314Z,91.20
2022-10-05T11:11:10.683Z,92.50
2022-10-05T11:13:03.617Z,93.30
2022-10-05T11:14:40.187Z,93.50
2022-10-05T11:16:33.298Z,92.80
2022-10-05T11:18:16.666Z,92.80
2022-10-05T11:20:04.874Z,92.70
2022-10-05T11:21:34.265Z,92.80
2022-10-05T11:22:57.271Z,91.50
2022-10-05T11:24:54.752Z,92.00
2022-10-05T11:26:25.021Z,91.50
2022-10-05T11:27:50.082Z,91.10
2022-10-05T11:29:41.406Z,91.00
2022-10-05T11:31:19.676Z,95.10
2022-10-05T11:33:11.954Z,92.00
2022-10-05T11:35:07.197Z,90.40
2022-10-05T11:36:46.520Z,90.50
2022-10-05T11:38:16.866Z,90.20
2022-10-05T11:39:46.123Z,92.00
2022-10-05T11:41:41.495Z,91.20
2022-10-05T11:43:41.819Z,91.60
2022-10-05T11:45:24.687Z,91.00
2022-10-05T11:46:34.841Z,90.50
2022-10-05T11:47:50.190Z,90.80
2022-10-05T11:49:34.301Z,90.70
2022-10-05T11:50:49.033Z,90.40
2022-10-05T11:52:05.216Z,92.30
2022-10-05T11:53:20.186Z,92.60
2022-10-05T11:55:09.201Z,91.40
2022-10-05T11:56:20.159Z,91.30
2022-10-05T11:57:32.842Z,90.40
2022-10-05T11:58:42.248Z,90.90
2022-10-05T11:59:55.784Z,91.40
2022-10-05T12:01:07.440Z,91.10
2022-10-05T12:02:37.805Z,90.60
2022-10-05T12:03:54.798Z,91.50
2022-10-05T12:05:10.745Z,90.70
2022-10-05T12:06:36.925Z,92.30
2022-10-05T12:07:50.792Z,92.70
2022-10-05T12:09:15.660Z,91.80
2022-10-05T12:10:32.747Z,91.40
2022-10-05T12:11:58.020Z,91.40
2022-10-05T12:13:19.443Z,91.80
2022-10-05T12:14:38.724Z,92.30
2022-10-05T12:15:51.374Z,90.40
2022-10-05T12:17:01.501Z,92.20
2022-10-05T12:18:13.572Z,91.00
2022-10-05T12:19:26.229Z,91.50
2022-10-05T12:20:36.970Z,93.40
2022-10-05T12:21:45.798Z,94.30
2022-10-05T12:22:57.827Z,92.60
2022-10-05T12:24:09.623Z,91.80
2022-10-05T12:25:30.443Z,91.00
2022-10-05T12:26:41.752Z,90.20
2022-10-05T12:27:50.806Z,90.40
2022-10-05T12:29:02.412Z,91.30
2022-10-05T12:30:15.577Z,93.50
2022-10-05T12:31:31.846Z,92.80
2022-10-05T12:32:41.009Z,91.70
2022-10-05T12:33:52.499Z,90.30
2022-10-05T12:35:11.554Z,91.30
2022-10-05T12:36:26.329Z,91.70
2022-10-05T12:37:49.108Z,90.70
2022-10-05T12:39:01.620Z,89.90
2022-10-05T12:40:28.199Z,90.00
2022-10-05T12:41:40.446Z,90.90
2022-10-05T12:42:57.104Z,90.70
2022-10-05T12:44:17.514Z,91.30
2022-10-05T12:45:36.187Z,90.50
2022-10-05T12:46:55.151Z,89.70
2022-10-05T12:48:32.761Z,89.40
2022-10-05T12:50:01.711Z,90.00
2022-10-05T12:51:16.880Z,89.30
2022-10-05T12:52:51.799Z,89.90
2022-10-05T12:54:05.384Z,90.60
2022-10-05T12:55:16.865Z,90.70
2022-10-05T12:56:36.692Z,91.00
2022-10-05T12:57:51.701Z,90.10
2022-10-05T12:59:10.714Z,91.10
2022-10-05T13:00:22.746Z,90.40
2022-10-05T13:01:41.170Z,89.40
2022-10-05T13:02:50.985Z,89.60
2022-10-05T13:04:07.662Z,89.20
2022-10-05T13:05:27.495Z,91.90
2022-10-05T13:06:41.739Z,91.40
2022-10-05T13:08:22.159Z,89.90
2022-10-05T13:09:36.141Z,89.70
2022-10-05T13:10:46.814Z,89.70
2022-10-05T13:11:54.577Z,89.10
2022-10-05T13:13:12.400Z,90.40
2022-10-05T13:14:35.402Z,89.40
2022-10-05T13:15:49.505Z,90.30
2022-10-05T13:17:01.300Z,92.30
2022-10-05T13:18:19.991Z,90.30
2022-10-05T13:19:39.447Z,90.80
2022-10-05T13:20:47.670Z,90.10
2022-10-05T13:22:22.871Z,90.80
2022-10-05T13:23:37.678Z,90.90
2022-10-05T13:24:55.717Z,90.00
2022-10-05T13:26:10.363Z,89.90
2022-10-05T13:27:17.935Z,90.10
2022-10-05T13:28:27.414Z,92.80
2022-10-05T13:29:37.619Z,90.50
2022-10-05T13:30:47.142Z,90.20
2022-10-05T13:31:56.514Z,90.00
2022-10-05T13:33:14.964Z,89.90
2022-10-05T13:34:30.348Z,89.80
2022-10-05T13:35:45.934Z,90.30
2022-10-05T13:37:06.662Z,90.10
2022-10-05T13:38:24.717Z,91.30
2022-10-05T13:39:55.391Z,90.20
2022-10-05T13:41:12.816Z,89.70
2022-10-05T13:42:20.015Z,90.50
2022-10-05T13:43:33.488Z,89.80
2022-10-05T13:44:47.860Z,89.60
2022-10-05T13:45:57.435Z,89.50
2022-10-05T13:47:07.329Z,90.50
2022-10-05T13:48:28.848Z,89.90
2022-10-05T13:49:43.525Z,91.90
2022-10-05T13:50:59.433Z,91.00
2022-10-05T13:52:25.853Z,90.10
2022-10-05T13:53:41.469Z,89.90
2022-10-05T13:54:55.243Z,90.90
2022-10-05T13:56:11.742Z,94.30
2022-10-05T13:57:35.557Z,94.70
2022-10-05T13:58:47.497Z,90.90
2022-10-05T13:59:56.658Z,90.50
2022-10-05T14:01:03.235Z,89.40
2022-10-05T14:02:10.606Z,89.10
2022-10-05T14:03:32.523Z,90.10
2022-10-05T14:04:47.010Z,89.40
2022-10-05T14:05:57.584Z,91.40
2022-10-05T14:07:26.193Z,90.20
2022-10-05T14:08:34.094Z,90.10
2022-10-05T14:09:36.888Z,89.90
2022-10-05T14:10:43.326Z,89.90
2022-10-05T14:11:54.938Z,88.60
2022-10-05T14:12:58.141Z,89.70
2022-10-05T14:14:15.193Z,91.70
2022-10-05T14:15:22.335Z,90.40
2022-10-05T14:16:27.147Z,89.50
2022-10-05T14:17:41.447Z,88.50
2022-10-05T14:18:56.191Z,91.60
2022-10-05T14:20:03.526Z,90.00
2022-10-05T14:21:23.294Z,90.10
2022-10-05T14:22:27.445Z,90.10
2022-10-05T14:23:32.048Z,89.20
2022-10-05T14:24:44.167Z,89.60
2022-10-05T14:25:54.120Z,89.30
2022-10-05T14:27:01.035Z,92.70
2022-10-05T14:28:24.098Z,89.90
2022-10-05T14:29:36.409Z,91.50
2022-10-05T14:30:40.623Z,90.10
2022-10-05T14:31:54.342Z,92.00
2022-10-05T14:33:16.343Z,89.80
2022-10-05T14:34:34.570Z,89.70
2022-10-05T14:35:50.279Z,89.10
2022-10-05T14:36:58.174Z,88.90
2022-10-05T14:38:04.696Z,88.90
2022-10-05T14:39:13.046Z,89.00
2022-10-05T14:40:32.874Z,89.10
2022-10-05T14:41:37.641Z,88.80
2022-10-05T14:42:47.346Z,89.00
2022-10-05T14:43:58.680Z,88.60
2022-10-05T14:45:15.809Z,88.30
2022-10-05T14:46:28.231Z,91.10
2022-10-05T14:47:34.309Z,91.20
2022-10-05T14:48:42.878Z,89.40
2022-10-05T14:50:09.705Z,89.70
2022-10-05T14:51:30.583Z,89.30
2022-10-05T14:52:34.705Z,89.60
2022-10-05T14:53:44.771Z,90.00
2022-10-05T14:54:59.289Z,89.20
2022-10-05T14:56:26.326Z,89.30
2022-10-05T14:57:39.284Z,88.30
2022-10-05T14:59:15.127Z,88.50
2022-10-05T15:00:19.361Z,88.00
2022-10-05T15:01:28.131Z,87.50
2022-10-05T15:03:05.209Z,87.50
2022-10-05T15:04:29.438Z,87.20
2022-10-05T15:05:39.784Z,87.50
2022-10-05T15:06:55.216Z,89.60
2022-10-05T15:08:17.016Z,88.10
2022-10-05T15:09:33.289Z,88.60
2022-10-05T15:10:43.405Z,88.80
2022-10-05T15:11:51.674Z,89.60
2022-10-05T15:13:00.025Z,88.20
2022-10-05T15:14:13.702Z,87.60
2022-10-05T15:15:28.616Z,88.90
2022-10-05T15:16:33.520Z,90.70
2022-10-05T15:17:52.501Z,89.30
2022-10-05T15:19:04.421Z,88.30
2022-10-05T15:20:24.426Z,87.60
2022-10-05T15:21:46.165Z,88.30
2022-10-05T15:23:00.420Z,87.70
2022-10-05T15:24:09.408Z,88.00
2022-10-05T15:25:21.593Z,88.30
2022-10-05T15:26:50.629Z,87.50
2022-10-05T15:28:11.024Z,87.50
2022-10-05T15:29:42.574Z,87.60
2022-10-05T15:31:01.836Z,87.10
2022-10-05T15:32:18.288Z,86.60
2022-10-05T15:33:32.409Z,86.90
2022-10-05T15:34:45.347Z,88.40
2022-10-05T15:36:08.301Z,89.30
2022-10-05T15:37:21.039Z,88.50
2022-10-05T15:38:26.560Z,87.80
2022-10-05T15:39:37.103Z,87.80
2022-10-05T15:40:46.476Z,87.30
2022-10-05T15:42:01.902Z,88.00
2022-10-05T15:43:11.740Z,87.80
2022-10-05T15:44:30.309Z,88.50
2022-10-05T15:45:37.656Z,87.50
2022-10-05T15:46:49.606Z,88.70
2022-10-05T15:48:03.137Z,89.50
2022-10-05T15:49:29.024Z,89.20
2022-10-05T15:50:43.186Z,89.90
2022-10-05T15:52:01.639Z,88.90
2022-10-05T15:53:18.479Z,88.50
2022-10-05T15:54:52.824Z,88.10
2022-10-05T15:56:01.204Z,88.60
2022-10-05T15:57:18.435Z,88.40
2022-10-05T15:58:55.576Z,90.30
2022-10-05T16:00:04.736Z,88.00
2022-10-05T16:01:13.474Z,87.80
2022-10-05T16:02:22.627Z,88.30
2022-10-05T16:03:32.787Z,88.30
2022-10-05T16:04:47.870Z,88.00
2022-10-05T16:06:18.919Z,88.50
2022-10-05T16:07:46.595Z,87.60
2022-10-05T16:09:08.518Z,88.20
2022-10-05T16:10:19.163Z,88.60
2022-10-05T16:12:07.098Z,88.10
2022-10-05T16:13:23.051Z,87.90
2022-10-05T16:15:04.655Z,88.40
2022-10-05T16:16:22.229Z,89.40
2022-10-05T16:18:01.316Z,89.00
2022-10-05T16:19:16.050Z,92.30
2022-10-05T16:20:41.927Z,89.50
2022-10-05T16:21:54.123Z,91.30
2022-10-05T16:23:09.145Z,89.30
2022-10-05T16:24:31.840Z,89.70
2022-10-05T16:25:57.776Z,88.90
2022-10-05T16:27:12.126Z,89.00
2022-10-05T16:28:51.918Z,88.70
2022-10-05T16:30:03.505Z,90.40
2022-10-05T16:31:18.832Z,89.20
2022-10-05T16:32:26.050Z,88.40
2022-10-05T16:33:54.744Z,88.30
2022-10-05T16:35:08.098Z,89.10
2022-10-05T16:36:22.645Z,88.70
2022-10-05T16:37:35.861Z,89.10
2022-10-05T16:38:59.191Z,90.40
2022-10-05T16:40:13.704Z,89.20
2022-10-05T16:41:30.228Z,89.30
2022-10-05T16:42:53.474Z,89.10
2022-10-05T16:44:08.591Z,91.00
2022-10-05T16:45:46.231Z,90.30
2022-10-05T16:46:59.311Z,89.80
2022-10-05T16:48:11.771Z,90.40
2022-10-05T16:49:29.767Z,91.40
2022-10-05T16:50:44.437Z,89.60
2022-10-05T16:51:57.754Z,91.80
2022-10-05T16:53:10.770Z,91.20
2022-10-05T16:54:23.153Z,89.90
2022-10-05T16:55:35.352Z,90.10
2022-10-05T16:56:44.237Z,89.50
2022-10-05T16:57:55.932Z,90.50
2022-10-05T16:59:35.784Z,90.00
2022-10-05T17:00:58.019Z,90.50
2022-10-05T17:02:09.067Z,91.10
2022-10-05T17:03:28.147Z,90.30
2022-10-05T17:04:41.516Z,90.60
2022-10-05T17:06:18.412Z,90.00
2022-10-05T17:07:49.694Z,90.00
2022-10-05T17:09:19.289Z,90.90